^^
Saratoga-Weather Station Historical Data
Daily Summary for May 10, 2021 Units:  Metric    English   Both
Daily Weekly Monthly Yearly Custom
  High: Low: Average:
Temperature: -1.3 °C -2.3 °C -1.8 °C
Dew Point: -1.9 °C -3 °C -2.6 °C
Humidity: 96% 92% 95%
Wind Speed: 3.2km/h 0km/h 0.1km/h
Wind Gust: 3.2km/h - -
Wind- - ESE
Pressure: 1024.0 hPa 1023.4 hPa -
Precipitation: 0.0 mm    
Historical Graphs
 
 
Tabular Data for May 10, 2021
Time Temperature Dew Point Pressure Wind Wind Speed Wind Gust Humidity Rainfall Rate (Hourly) solar
00:04 -1.6 °C -2.7 °C 1024.0 hPa Calm     92% 0.0 mm 0 W/m2
00:09 -1.6 °C -2.7 °C 1024.0 hPa Calm     92% 0.0 mm 0 W/m2
00:14 -1.7 °C -2.7 °C 1024.0 hPa Calm     93% 0.0 mm 0 W/m2
00:19 -1.6 °C -2.6 °C 1024.0 hPa Calm     93% 0.0 mm 0 W/m2
00:24 -1.6 °C -2.6 °C 1024.0 hPa Calm     93% 0.0 mm 0 W/m2
00:29 -1.6 °C -2.6 °C 1024.0 hPa Calm     93% 0.0 mm 0 W/m2
00:34 -1.6 °C -2.6 °C 1024.0 hPa Calm     93% 0.0 mm 0 W/m2
00:39 -1.6 °C -2.6 °C 1023.7 hPa Calm     93% 0.0 mm 0 W/m2
00:44 -1.6 °C -2.4 °C 1023.7 hPa Calm     94% 0.0 mm 0 W/m2
00:49 -1.6 °C -2.4 °C 1023.7 hPa Calm     94% 0.0 mm 0 W/m2
00:54 -1.7 °C -2.5 °C 1023.4 hPa Calm     94% 0.0 mm 0 W/m2
00:59 -1.7 °C -2.5 °C 1023.7 hPa Calm     94% 0.0 mm 0 W/m2
01:04 -1.8 °C -2.8 °C 1023.7 hPa Calm     93% 0.0 mm 0 W/m2
01:09 -1.8 °C -2.6 °C 1023.7 hPa Calm   1.6 km/h 94% 0.0 mm 0 W/m2
01:14 -1.9 °C -2.7 °C 1023.7 hPa Calm     94% 0.0 mm 0 W/m2
01:19 -1.9 °C -2.7 °C 1023.7 hPa Calm     94% 0.0 mm 0 W/m2
01:24 -1.9 °C -2.7 °C 1023.7 hPa Calm     94% 0.0 mm 0 W/m2
01:29 -2 °C -2.8 °C 1023.7 hPa ESE 1.4 km/h 1.6 km/h 94% 0.0 mm 0 W/m2
01:34 -2.1 °C -2.9 °C 1023.4 hPa Calm     94% 0.0 mm 0 W/m2
01:39 -2.1 °C -2.9 °C 1023.7 hPa Calm     94% 0.0 mm 0 W/m2
01:44 -2.1 °C -2.9 °C 1023.4 hPa Calm   1.6 km/h 94% 0.0 mm 0 W/m2
01:49 -2 °C -2.7 °C 1023.7 hPa Calm     95% 0.0 mm 0 W/m2
01:54 -1.9 °C -2.6 °C 1023.7 hPa Calm     95% 0.0 mm 0 W/m2
01:59 -1.8 °C -2.5 °C 1023.7 hPa ESE 1.4 km/h 3.2 km/h 95% 0.0 mm 0 W/m2
02:04 -1.7 °C -2.4 °C 1023.7 hPa Calm   1.6 km/h 95% 0.0 mm 0 W/m2
02:09 -1.6 °C -2.3 °C 1023.7 hPa Calm   3.2 km/h 95% 0.0 mm 0 W/m2
02:14 -1.5 °C -2.2 °C 1023.4 hPa Calm     95% 0.0 mm 0 W/m2
02:19 -1.5 °C -2.2 °C 1023.7 hPa Calm     95% 0.0 mm 0 W/m2
02:24 -1.6 °C -2.3 °C 1023.7 hPa Calm     95% 0.0 mm 0 W/m2
02:29 -1.6 °C -2.3 °C 1023.7 hPa Calm     95% 0.0 mm 0 W/m2
02:34 -1.7 °C -2.5 °C 1023.7 hPa Calm     94% 0.0 mm 0 W/m2
02:39 -1.8 °C -2.6 °C 1023.7 hPa Calm     94% 0.0 mm 0 W/m2
02:44 -1.8 °C -2.6 °C 1023.7 hPa Calm     94% 0.0 mm 0 W/m2
02:49 -1.9 °C -2.7 °C 1023.7 hPa Calm     94% 0.0 mm 0 W/m2
02:54 -2.1 °C -2.9 °C 1023.7 hPa Calm     94% 0.0 mm 0 W/m2
02:59 -2.1 °C -2.9 °C 1023.7 hPa Calm     94% 0.0 mm 0 W/m2
03:04 -2.2 °C -3 °C 1023.7 hPa Calm     94% 0.0 mm 0 W/m2
03:09 -2.2 °C -3 °C 1023.7 hPa Calm     94% 0.0 mm 0 W/m2
03:14 -2.3 °C -3 °C 1023.7 hPa Calm     95% 0.0 mm 0 W/m2
03:19 -2.3 °C -3 °C 1024.0 hPa Calm     95% 0.0 mm 0 W/m2
03:24 -2.3 °C -3 °C 1023.7 hPa Calm     95% 0.0 mm 0 W/m2
03:29 -2.3 °C -3 °C 1024.0 hPa Calm     95% 0.0 mm 0 W/m2
03:34 -2.3 °C -3 °C 1024.0 hPa Calm     95% 0.0 mm 0 W/m2
03:39 -2.3 °C -3 °C 1023.7 hPa Calm     95% 0.0 mm 0 W/m2
03:44 -2.3 °C -3 °C 1023.7 hPa Calm     95% 0.0 mm 0 W/m2
03:49 -2.2 °C -2.9 °C 1023.7 hPa Calm     95% 0.0 mm 0 W/m2
03:54 -2.1 °C -2.8 °C 1023.7 hPa Calm     95% 0.0 mm 0 W/m2
03:59 -2.1 °C -2.8 °C 1023.7 hPa Calm     95% 0.0 mm 0 W/m2
04:04 -1.9 °C -2.6 °C 1023.7 hPa Calm     95% 0.0 mm 0 W/m2
04:09 -1.9 °C -2.6 °C 1023.7 hPa Calm     95% 0.0 mm 0 W/m2
04:14 -1.9 °C -2.6 °C 1023.7 hPa Calm     95% 0.0 mm 0 W/m2
04:19 -1.8 °C -2.5 °C 1023.7 hPa Calm     95% 0.0 mm 0 W/m2
04:24 -1.8 °C -2.5 °C 1023.7 hPa Calm     95% 0.0 mm 0 W/m2
04:29 -1.7 °C -2.4 °C 1023.7 hPa Calm     95% 0.0 mm 0 W/m2
04:34 -1.6 °C -2.2 °C 1023.7 hPa Calm     96% 0.0 mm 0 W/m2
04:39 -1.5 °C -2.1 °C 1023.7 hPa Calm     96% 0.0 mm 0 W/m2
04:44 -1.5 °C -2.1 °C 1023.7 hPa Calm     96% 0.0 mm 0 W/m2
04:50 -1.5 °C -2.1 °C 1023.7 hPa Calm     96% 0.0 mm 0 W/m2
04:55 -1.5 °C -2.2 °C 1023.7 hPa Calm     95% 0.0 mm 0 W/m2
05:00 -1.5 °C -2.2 °C 1023.7 hPa Calm     95% 0.0 mm 0 W/m2
05:05 -1.5 °C -2.2 °C 1023.7 hPa Calm     95% 0.0 mm 0 W/m2
05:10 -1.4 °C -2.1 °C 1023.7 hPa Calm     95% 0.0 mm 0 W/m2
05:15 -1.4 °C -2.1 °C 1023.7 hPa Calm     95% 0.0 mm 0 W/m2
05:20 -1.4 °C -2.1 °C 1023.7 hPa Calm     95% 0.0 mm 0 W/m2
05:25 -1.4 °C -2.1 °C 1023.4 hPa Calm     95% 0.0 mm 0 W/m2
05:30 -1.3 °C -2 °C 1023.7 hPa ESE 1.4 km/h 1.6 km/h 95% 0.0 mm 0 W/m2
05:35 -1.3 °C -1.9 °C 1023.4 hPa ESE 3.2 km/h 3.2 km/h 96% 0.0 mm 0 W/m2
Juneau County Weather
Compliments of Weather Underground - 2 mb